Time,TemperatureF,DewpointF,PressureIn,WindDirection,WindDirectionDegrees,WindSpeedMPH,WindSpeedGustMPH,Humidity,HourlyPrecipIn,Conditions,Clouds,dailyrainin,SoftwareType,DateUTC
2013-02-15 00:00:00,32.0,27.2,29.95,WNW,293,0.5,1.6,82,0.00,n/a,n/a,-99.99,Henriksen +1-Wire,2013-02-15 05:00:00,
2013-02-15 00:01:00,31.9,27.2,29.95,NNW,330,0.6,1.6,82,0.00,n/a,n/a,-99.99,Henriksen +1-Wire,2013-02-15 05:01:00,
2013-02-15 00:02:00,31.9,27.1,29.95,NNW,339,0.9,1.7,82,0.00,n/a,n/a,-99.99,Henriksen +1-Wire,2013-02-15 05:02:00,
2013-02-15 00:07:00,31.7,27.0,29.95,NW,323,0.2,2.4,82,0.00,n/a,n/a,-99.99,Henriksen +1-Wire,2013-02-15 05:07:00,
2013-02-15 00:12:00,31.5,26.8,29.95,NNW,331,0.0,2.4,82,0.00,n/a,n/a,-99.99,Henriksen +1-Wire,2013-02-15 05:12:00,
2013-02-15 00:13:00,31.4,26.8,29.95,NNW,333,0.0,2.4,82,0.00,n/a,n/a,-99.99,Henriksen +1-Wire,2013-02-15 05:13:00,
2013-02-15 00:18:00,31.2,26.6,29.95,NW,324,0.1,1.7,82,0.00,n/a,n/a,-99.99,Henriksen +1-Wire,2013-02-15 05:18:00,
2013-02-15 00:23:00,31.1,26.5,29.95,SSW,198,0.0,1.7,82,0.00,n/a,n/a,-99.99,Henriksen +1-Wire,2013-02-15 05:23:00,
2013-02-15 00:28:00,31.0,26.5,29.95,SSW,196,0.0,0.0,83,0.00,n/a,n/a,-99.99,Henriksen +1-Wire,2013-02-15 05:28:00,
2013-02-15 00:33:00,31.2,26.8,29.95,SW,224,0.0,0.0,83,0.00,n/a,n/a,-99.99,Henriksen +1-Wire,2013-02-15 05:33:00,
2013-02-15 00:38:00,31.6,27.2,29.95,SW,220,0.0,0.0,83,0.00,n/a,n/a,-99.99,Henriksen +1-Wire,2013-02-15 05:38:00,
2013-02-15 00:43:00,31.8,27.6,29.95,South,181,0.0,0.0,84,0.00,n/a,n/a,-99.99,Henriksen +1-Wire,2013-02-15 05:43:00,
2013-02-15 00:48:00,31.8,27.7,29.95,South,189,0.0,0.0,84,0.00,n/a,n/a,-99.99,Henriksen +1-Wire,2013-02-15 05:48:00,
2013-02-15 00:53:00,31.8,27.8,29.94,WNW,282,0.3,2.3,85,0.00,n/a,n/a,-99.99,Henriksen +1-Wire,2013-02-15 05:53:00,
2013-02-15 00:58:00,31.5,27.7,29.94,West,269,0.4,2.3,85,0.00,n/a,n/a,-99.99,Henriksen +1-Wire,2013-02-15 05:58:00,
2013-02-15 01:03:00,30.8,27.1,29.94,WSW,255,0.0,1.6,85,0.00,n/a,n/a,-99.99,Henriksen +1-Wire,2013-02-15 06:03:00,
2013-02-15 01:08:00,30.2,26.6,29.94,NW,304,1.1,4.4,86,0.00,n/a,n/a,-99.99,Henriksen +1-Wire,2013-02-15 06:08:00,
2013-02-15 01:13:00,29.8,26.4,29.95,West,277,0.7,4.4,86,0.00,n/a,n/a,-99.99,Henriksen +1-Wire,2013-02-15 06:13:00,
2013-02-15 01:18:00,29.5,26.1,29.95,WNW,288,1.0,2.4,87,0.00,n/a,n/a,-99.99,Henriksen +1-Wire,2013-02-15 06:18:00,
2013-02-15 01:24:00,29.4,26.0,29.94,WNW,295,0.0,2.4,87,0.00,n/a,n/a,-99.99,Henriksen +1-Wire,2013-02-15 06:24:00,
2013-02-15 01:30:00,29.8,26.4,29.94,WNW,295,0.0,0.8,87,0.00,n/a,n/a,-99.99,Henriksen +1-Wire,2013-02-15 06:30:00,
2013-02-15 01:36:00,29.9,26.5,29.94,WSW,252,0.0,0.0,87,0.00,n/a,n/a,-99.99,Henriksen +1-Wire,2013-02-15 06:36:00,
2013-02-15 01:41:00,29.7,26.4,29.95,South,191,0.0,0.0,87,0.00,n/a,n/a,-99.99,Henriksen +1-Wire,2013-02-15 06:41:00,
2013-02-15 01:46:00,29.0,25.9,29.95,SE,135,0.0,0.0,88,0.00,n/a,n/a,-99.99,Henriksen +1-Wire,2013-02-15 06:46:00,
2013-02-15 01:51:00,28.4,25.5,29.95,SE,138,0.0,0.0,88,0.00,n/a,n/a,-99.99,Henriksen +1-Wire,2013-02-15 06:51:00,
2013-02-15 01:56:00,28.5,25.8,29.95,SE,134,0.0,0.0,89,0.00,n/a,n/a,-99.99,Henriksen +1-Wire,2013-02-15 06:56:00,
2013-02-15 02:02:00,28.0,25.4,29.95,SE,130,0.0,0.0,89,0.00,n/a,n/a,-99.99,Henriksen +1-Wire,2013-02-15 07:02:00,
2013-02-15 02:07:00,27.8,25.3,29.95,SE,142,0.0,0.0,90,0.00,n/a,n/a,-99.99,Henriksen +1-Wire,2013-02-15 07:07:00,
2013-02-15 02:12:00,27.7,25.4,29.95,South,189,0.5,1.6,90,0.00,n/a,n/a,-99.99,Henriksen +1-Wire,2013-02-15 07:12:00,
2013-02-15 02:17:00,27.9,25.7,29.95,SSW,200,0.2,1.6,91,0.00,n/a,n/a,-99.99,Henriksen +1-Wire,2013-02-15 07:17:00,
2013-02-15 02:22:00,28.1,26.1,29.95,SW,219,0.7,2.4,91,0.00,n/a,n/a,-99.99,Henriksen +1-Wire,2013-02-15 07:22:00,
2013-02-15 02:27:00,28.4,26.3,29.95,SW,216,0.1,2.4,92,0.00,n/a,n/a,-99.99,Henriksen +1-Wire,2013-02-15 07:27:00,
2013-02-15 02:32:00,28.4,26.4,29.95,SSW,194,0.0,1.6,92,0.00,n/a,n/a,-99.99,Henriksen +1-Wire,2013-02-15 07:32:00,
2013-02-15 02:37:00,28.5,26.4,29.95,SSW,197,0.0,0.0,91,0.00,n/a,n/a,-99.99,Henriksen +1-Wire,2013-02-15 07:37:00,
2013-02-15 02:42:00,28.5,26.4,29.95,South,180,0.0,0.0,91,0.00,n/a,n/a,-99.99,Henriksen +1-Wire,2013-02-15 07:42:00,
2013-02-15 02:47:00,28.6,26.4,29.95,South,184,0.3,1.4,91,0.00,n/a,n/a,-99.99,Henriksen +1-Wire,2013-02-15 07:47:00,
2013-02-15 02:52:00,28.6,26.3,29.95,SSW,212,0.1,1.6,91,0.00,n/a,n/a,-99.99,Henriksen +1-Wire,2013-02-15 07:52:00,
2013-02-15 02:57:00,28.5,26.3,29.95,South,183,0.0,1.6,91,0.00,n/a,n/a,-99.99,Henriksen +1-Wire,2013-02-15 07:57:00,
2013-02-15 03:02:00,28.4,26.3,29.94,SE,132,0.0,0.0,91,0.00,n/a,n/a,-99.99,Henriksen +1-Wire,2013-02-15 08:02:00,
2013-02-15 03:07:00,28.3,26.4,29.94,SE,139,0.0,0.8,92,0.00,n/a,n/a,-99.99,Henriksen +1-Wire,2013-02-15 08:07:00,
2013-02-15 03:12:00,28.2,26.4,29.94,South,187,0.0,0.9,92,0.00,n/a,n/a,-99.99,Henriksen +1-Wire,2013-02-15 08:12:00,
2013-02-15 03:17:00,27.6,25.8,29.94,SSW,201,1.1,3.2,92,0.00,n/a,n/a,-99.99,Henriksen +1-Wire,2013-02-15 08:17:00,
2013-02-15 03:22:00,27.2,25.3,29.94,SW,236,2.2,4.0,92,0.00,n/a,n/a,-99.99,Henriksen +1-Wire,2013-02-15 08:22:00,
2013-02-15 03:27:00,27.4,25.6,29.94,SW,230,2.0,4.0,92,0.00,n/a,n/a,-99.99,Henriksen +1-Wire,2013-02-15 08:27:00,
2013-02-15 03:32:00,27.7,25.8,29.94,SW,230,1.5,3.2,92,0.00,n/a,n/a,-99.99,Henriksen +1-Wire,2013-02-15 08:32:00,
2013-02-15 03:37:00,27.8,25.9,29.94,WSW,245,1.0,3.2,92,0.00,n/a,n/a,-99.99,Henriksen +1-Wire,2013-02-15 08:37:00,
2013-02-15 03:42:00,28.1,26.2,29.94,West,277,0.9,3.2,92,0.00,n/a,n/a,-99.99,Henriksen +1-Wire,2013-02-15 08:42:00,
2013-02-15 03:47:00,28.3,26.4,29.94,West,272,0.0,3.2,92,0.00,n/a,n/a,-99.99,Henriksen +1-Wire,2013-02-15 08:47:00,
2013-02-15 03:53:00,28.4,26.4,29.94,SW,223,0.9,2.4,91,0.00,n/a,n/a,-99.99,Henriksen +1-Wire,2013-02-15 08:53:00,
2013-02-15 03:58:00,28.1,26.0,29.94,SW,223,1.2,3.0,91,0.00,n/a,n/a,-99.99,Henriksen +1-Wire,2013-02-15 08:58:00,
2013-02-15 04:03:00,27.7,25.6,29.94,SW,227,1.8,3.1,91,0.00,n/a,n/a,-99.99,Henriksen +1-Wire,2013-02-15 09:03:00,
2013-02-15 04:08:00,27.6,25.5,29.94,SW,227,1.8,3.1,91,0.00,n/a,n/a,-99.99,Henriksen +1-Wire,2013-02-15 09:08:00,
2013-02-15 04:13:00,27.5,25.4,29.94,SW,222,2.1,4.7,91,0.00,n/a,n/a,-99.99,Henriksen +1-Wire,2013-02-15 09:13:00,
2013-02-15 04:18:00,27.6,25.5,29.94,SW,226,1.8,4.7,91,0.00,n/a,n/a,-99.99,Henriksen +1-Wire,2013-02-15 09:18:00,
2013-02-15 04:23:00,28.0,25.8,29.94,SW,224,1.1,3.9,91,0.00,n/a,n/a,-99.99,Henriksen +1-Wire,2013-02-15 09:23:00,
2013-02-15 04:28:00,28.1,25.7,29.94,SW,226,1.2,3.3,90,0.00,n/a,n/a,-99.99,Henriksen +1-Wire,2013-02-15 09:28:00,
2013-02-15 04:33:00,28.0,25.5,29.94,SW,220,1.4,3.1,90,0.00,n/a,n/a,-99.99,Henriksen +1-Wire,2013-02-15 09:33:00,
2013-02-15 04:38:00,28.5,25.9,29.94,SW,229,1.7,4.0,90,0.00,n/a,n/a,-99.99,Henriksen +1-Wire,2013-02-15 09:38:00,
2013-02-15 04:43:00,28.8,26.2,29.94,SW,228,1.4,4.0,89,0.00,n/a,n/a,-99.99,Henriksen +1-Wire,2013-02-15 09:43:00,
2013-02-15 04:48:00,28.4,25.7,29.94,SW,226,0.4,3.2,89,0.00,n/a,n/a,-99.99,Henriksen +1-Wire,2013-02-15 09:48:00,
2013-02-15 04:53:00,28.1,25.4,29.94,SSW,209,0.7,2.4,89,0.00,n/a,n/a,-99.99,Henriksen +1-Wire,2013-02-15 09:53:00,
2013-02-15 04:58:00,28.0,25.2,29.94,SW,215,1.8,3.3,89,0.00,n/a,n/a,-99.99,Henriksen +1-Wire,2013-02-15 09:58:00,
2013-02-15 05:03:00,27.9,25.1,29.94,SSW,195,1.1,3.9,89,0.00,n/a,n/a,-99.99,Henriksen +1-Wire,2013-02-15 10:03:00,
2013-02-15 05:08:00,27.8,25.0,29.94,SSW,203,1.6,3.9,89,0.00,n/a,n/a,-99.99,Henriksen +1-Wire,2013-02-15 10:08:00,
2013-02-15 05:13:00,27.8,25.0,29.94,SSW,204,2.4,4.0,89,0.00,n/a,n/a,-99.99,Henriksen +1-Wire,2013-02-15 10:13:00,
2013-02-15 05:18:00,28.6,25.8,29.94,SSW,209,1.6,5.2,89,0.00,n/a,n/a,-99.99,Henriksen +1-Wire,2013-02-15 10:18:00,
2013-02-15 05:23:00,29.2,26.4,29.94,SSW,213,1.8,5.2,89,0.00,n/a,n/a,-99.99,Henriksen +1-Wire,2013-02-15 10:23:00,
2013-02-15 05:28:00,29.5,26.6,29.94,SW,220,2.0,3.2,88,0.00,n/a,n/a,-99.99,Henriksen +1-Wire,2013-02-15 10:28:00,
2013-02-15 05:34:00,29.7,26.8,29.94,WSW,253,2.6,4.2,88,0.00,n/a,n/a,-99.99,Henriksen +1-Wire,2013-02-15 10:34:00,
2013-02-15 05:39:00,29.8,27.0,29.94,WSW,249,1.5,4.2,89,0.00,n/a,n/a,-99.99,Henriksen +1-Wire,2013-02-15 10:39:00,
2013-02-15 05:44:00,29.9,27.1,29.95,WSW,242,2.1,4.7,89,0.00,n/a,n/a,-99.99,Henriksen +1-Wire,2013-02-15 10:44:00,
2013-02-15 05:49:00,30.1,27.3,29.94,SW,230,1.9,4.7,89,0.00,n/a,n/a,-99.99,Henriksen +1-Wire,2013-02-15 10:49:00,
2013-02-15 05:54:00,29.7,27.1,29.94,WSW,237,2.6,5.5,89,0.00,n/a,n/a,-99.99,Henriksen +1-Wire,2013-02-15 10:54:00,
2013-02-15 05:59:00,29.6,27.0,29.94,SW,235,1.3,5.5,90,0.00,n/a,n/a,-99.99,Henriksen +1-Wire,2013-02-15 10:59:00,
2013-02-15 06:04:00,29.6,27.0,29.94,SW,218,1.2,5.1,90,0.00,n/a,n/a,-99.99,Henriksen +1-Wire,2013-02-15 11:04:00,
2013-02-15 06:09:00,29.7,27.2,29.94,SW,215,3.4,7.3,89,0.00,n/a,n/a,-99.99,Henriksen +1-Wire,2013-02-15 11:09:00,
2013-02-15 06:14:00,30.5,27.9,29.94,SW,222,3.0,7.3,89,0.00,n/a,n/a,-99.99,Henriksen +1-Wire,2013-02-15 11:14:00,
2013-02-15 06:19:00,31.1,28.5,29.93,SW,233,2.5,5.6,89,0.00,n/a,n/a,-99.99,Henriksen +1-Wire,2013-02-15 11:19:00,
2013-02-15 06:24:00,31.4,28.7,29.94,SW,222,1.9,4.0,89,0.00,n/a,n/a,-99.99,Henriksen +1-Wire,2013-02-15 11:24:00,
2013-02-15 06:30:00,31.6,29.0,29.94,SW,228,2.1,6.2,89,0.00,n/a,n/a,-99.99,Henriksen +1-Wire,2013-02-15 11:30:00,
2013-02-15 06:36:00,31.8,29.2,29.95,SW,226,0.5,6.2,90,0.00,n/a,n/a,-99.99,Henriksen +1-Wire,2013-02-15 11:36:00,
2013-02-15 06:41:00,31.7,29.2,29.95,SW,222,0.2,3.1,90,0.00,n/a,n/a,-99.99,Henriksen +1-Wire,2013-02-15 11:41:00,
2013-02-15 06:46:00,31.7,29.2,29.95,SW,218,0.1,3.2,90,0.00,n/a,n/a,-99.99,Henriksen +1-Wire,2013-02-15 11:46:00,
2013-02-15 06:51:00,31.8,29.3,29.95,WSW,247,0.3,3.4,90,0.00,n/a,n/a,-99.99,Henriksen +1-Wire,2013-02-15 11:51:00,
2013-02-15 06:56:00,31.8,29.4,29.94,NNW,339,0.3,3.4,90,0.00,n/a,n/a,-99.99,Henriksen +1-Wire,2013-02-15 11:56:00,
2013-02-15 07:01:00,31.8,29.5,29.95,WSW,240,1.6,3.2,90,0.00,n/a,n/a,-99.99,Henriksen +1-Wire,2013-02-15 12:01:00,
2013-02-15 07:06:00,32.0,29.7,29.95,SW,221,2.5,5.0,91,0.00,n/a,n/a,-99.99,Henriksen +1-Wire,2013-02-15 12:06:00,
2013-02-15 07:11:00,31.6,29.3,29.95,SSE,168,1.5,5.0,91,0.00,n/a,n/a,-99.99,Henriksen +1-Wire,2013-02-15 12:11:00,
2013-02-15 07:16:00,31.4,29.0,29.95,SSW,206,2.7,4.7,90,0.00,n/a,n/a,-99.99,Henriksen +1-Wire,2013-02-15 12:16:00,
2013-02-15 07:22:00,31.3,28.8,29.95,SSW,202,1.3,4.7,90,0.00,n/a,n/a,-99.99,Henriksen +1-Wire,2013-02-15 12:22:00,
2013-02-15 07:27:00,31.2,28.6,29.95,SW,214,1.9,4.2,90,0.00,n/a,n/a,-99.99,Henriksen +1-Wire,2013-02-15 12:27:00,
2013-02-15 07:32:00,31.1,28.5,29.95,SSW,211,3.3,7.2,89,0.00,n/a,n/a,-99.99,Henriksen +1-Wire,2013-02-15 12:32:00,
2013-02-15 07:38:00,31.2,28.6,29.95,SW,219,2.6,7.2,89,0.00,n/a,n/a,-99.99,Henriksen +1-Wire,2013-02-15 12:38:00,
2013-02-15 07:43:00,31.4,28.8,29.95,SW,226,4.5,8.7,89,0.00,n/a,n/a,-99.99,Henriksen +1-Wire,2013-02-15 12:43:00,
2013-02-15 07:48:00,31.5,28.9,29.95,SW,229,3.6,9.5,90,0.00,n/a,n/a,-99.99,Henriksen +1-Wire,2013-02-15 12:48:00,
2013-02-15 07:53:00,31.7,29.1,29.94,SW,236,4.0,9.5,90,0.00,n/a,n/a,-99.99,Henriksen +1-Wire,2013-02-15 12:53:00,
2013-02-15 07:58:00,31.8,29.2,29.94,SW,232,4.6,8.7,90,0.00,n/a,n/a,-99.99,Henriksen +1-Wire,2013-02-15 12:58:00,
2013-02-15 08:03:00,31.9,29.2,29.94,SW,217,4.5,9.4,89,0.00,n/a,n/a,-99.99,Henriksen +1-Wire,2013-02-15 13:03:00,
2013-02-15 08:08:00,31.9,29.3,29.94,SW,217,4.1,9.4,89,0.00,n/a,n/a,-99.99,Henriksen +1-Wire,2013-02-15 13:08:00,
2013-02-15 08:13:00,32.0,29.4,29.94,SSW,213,2.7,6.6,89,0.00,n/a,n/a,-99.99,Henriksen +1-Wire,2013-02-15 13:13:00,
2013-02-15 08:18:00,32.2,29.5,29.94,SW,217,2.9,8.6,89,0.00,n/a,n/a,-99.99,Henriksen +1-Wire,2013-02-15 13:18:00,
2013-02-15 08:23:00,32.4,29.7,29.94,SSW,210,2.6,8.6,89,0.00,n/a,n/a,-99.99,Henriksen +1-Wire,2013-02-15 13:23:00,
2013-02-15 08:29:00,32.7,29.8,29.94,SW,218,3.6,7.8,88,0.00,n/a,n/a,-99.99,Henriksen +1-Wire,2013-02-15 13:29:00,
2013-02-15 08:34:00,33.1,30.0,29.94,SW,227,3.7,7.8,88,0.00,n/a,n/a,-99.99,Henriksen +1-Wire,2013-02-15 13:34:00,
2013-02-15 08:39:00,33.5,30.2,29.94,SW,225,5.1,9.2,87,0.00,n/a,n/a,-99.99,Henriksen +1-Wire,2013-02-15 13:39:00,
2013-02-15 08:44:00,33.8,30.3,29.94,SW,228,5.0,9.2,86,0.00,n/a,n/a,-99.99,Henriksen +1-Wire,2013-02-15 13:44:00,
2013-02-15 08:49:00,34.4,30.6,29.94,SW,228,3.6,7.9,85,0.00,n/a,n/a,-99.99,Henriksen +1-Wire,2013-02-15 13:49:00,
2013-02-15 08:55:00,34.9,30.8,29.95,WSW,237,3.2,8.7,85,0.00,n/a,n/a,-99.99,Henriksen +1-Wire,2013-02-15 13:55:00,
2013-02-15 09:00:00,35.2,30.8,29.95,WSW,238,3.6,8.7,83,0.00,n/a,n/a,-99.99,Henriksen +1-Wire,2013-02-15 14:00:00,
2013-02-15 09:06:00,35.8,31.1,29.95,SW,235,3.8,7.1,83,0.00,n/a,n/a,-99.99,Henriksen +1-Wire,2013-02-15 14:06:00,
2013-02-15 09:11:00,36.1,31.1,29.95,SSW,204,3.6,7.9,81,0.00,n/a,n/a,-99.99,Henriksen +1-Wire,2013-02-15 14:11:00,
2013-02-15 09:16:00,36.5,31.2,29.95,SW,221,3.4,8.5,80,0.00,n/a,n/a,-99.99,Henriksen +1-Wire,2013-02-15 14:16:00,
2013-02-15 09:21:00,36.9,25.3,29.95,SW,224,3.2,8.5,62,0.00,n/a,n/a,-99.99,Henriksen +1-Wire,2013-02-15 14:21:00,
2013-02-15 09:26:00,37.2,20.5,29.96,SW,222,3.3,6.0,50,0.00,n/a,n/a,-99.99,Henriksen +1-Wire,2013-02-15 14:26:00,
2013-02-15 09:31:00,37.3,22.5,29.96,SSW,211,4.2,6.7,54,0.00,n/a,n/a,-99.99,Henriksen +1-Wire,2013-02-15 14:31:00,
2013-02-15 09:36:00,37.4,26.3,29.96,SW,227,2.5,6.7,63,0.00,n/a,n/a,-99.99,Henriksen +1-Wire,2013-02-15 14:36:00,
2013-02-15 09:41:00,37.5,27.8,29.96,SW,225,2.9,5.4,67,0.00,n/a,n/a,-99.99,Henriksen +1-Wire,2013-02-15 14:41:00,
2013-02-15 09:46:00,37.7,29.1,29.95,SW,226,2.9,5.2,70,0.00,n/a,n/a,-99.99,Henriksen +1-Wire,2013-02-15 14:46:00,
2013-02-15 09:51:00,38.0,30.0,29.95,WSW,247,1.9,4.7,72,0.00,n/a,n/a,-99.99,Henriksen +1-Wire,2013-02-15 14:51:00,
2013-02-15 09:56:00,38.6,30.8,29.95,West,266,1.8,4.5,73,0.00,n/a,n/a,-99.99,Henriksen +1-Wire,2013-02-15 14:56:00,
2013-02-15 10:01:00,39.0,31.0,29.95,WSW,256,2.6,5.6,72,0.00,n/a,n/a,-99.99,Henriksen +1-Wire,2013-02-15 15:01:00,
2013-02-15 10:06:00,39.2,31.0,29.95,SW,233,3.1,5.6,72,0.00,n/a,n/a,-99.99,Henriksen +1-Wire,2013-02-15 15:06:00,
2013-02-15 10:11:00,39.3,30.9,29.95,SW,225,2.8,6.5,71,0.00,n/a,n/a,-99.99,Henriksen +1-Wire,2013-02-15 15:11:00,
2013-02-15 10:16:00,39.5,30.9,29.95,SW,228,3.7,7.9,71,0.00,n/a,n/a,-99.99,Henriksen +1-Wire,2013-02-15 15:16:00,
2013-02-15 10:22:00,39.8,30.9,29.95,SSW,207,4.4,8.0,70,0.00,n/a,n/a,-99.99,Henriksen +1-Wire,2013-02-15 15:22:00,
2013-02-15 10:27:00,39.4,31.0,29.95,SSW,211,4.0,8.0,71,0.00,n/a,n/a,-99.99,Henriksen +1-Wire,2013-02-15 15:27:00,
2013-02-15 10:32:00,39.2,31.5,29.95,SSW,201,4.8,8.6,73,0.00,n/a,n/a,-99.99,Henriksen +1-Wire,2013-02-15 15:32:00,
2013-02-15 10:37:00,39.2,32.2,29.94,SSW,197,4.7,8.6,75,0.00,n/a,n/a,-99.99,Henriksen +1-Wire,2013-02-15 15:37:00,
2013-02-15 10:42:00,39.3,32.6,29.94,SSW,199,4.1,7.3,76,0.00,n/a,n/a,-99.99,Henriksen +1-Wire,2013-02-15 15:42:00,
2013-02-15 10:48:00,39.4,33.0,29.94,SSW,200,5.9,9.5,77,0.00,n/a,n/a,-99.99,Henriksen +1-Wire,2013-02-15 15:48:00,
2013-02-15 10:53:00,39.6,33.4,29.94,SSW,203,5.0,9.5,78,0.00,n/a,n/a,-99.99,Henriksen +1-Wire,2013-02-15 15:53:00,
2013-02-15 10:58:00,39.9,33.7,29.94,SSW,203,5.7,10.2,78,0.00,n/a,n/a,-99.99,Henriksen +1-Wire,2013-02-15 15:58:00,
2013-02-15 11:03:00,40.1,33.8,29.94,SSW,208,4.6,10.2,78,0.00,n/a,n/a,-99.99,Henriksen +1-Wire,2013-02-15 16:03:00,
2013-02-15 11:08:00,40.1,33.8,29.93,SSW,204,6.0,10.2,78,0.00,n/a,n/a,-99.99,Henriksen +1-Wire,2013-02-15 16:08:00,
2013-02-15 11:13:00,40.0,33.8,29.93,SSW,209,6.2,13.3,78,0.00,n/a,n/a,-99.99,Henriksen +1-Wire,2013-02-15 16:13:00,
2013-02-15 11:18:00,39.9,33.9,29.93,SSW,212,5.2,13.3,79,0.00,n/a,n/a,-99.99,Henriksen +1-Wire,2013-02-15 16:18:00,
2013-02-15 11:23:00,39.9,34.2,29.93,SSW,212,4.4,10.0,79,0.00,n/a,n/a,-99.99,Henriksen +1-Wire,2013-02-15 16:23:00,
2013-02-15 11:28:00,39.9,34.4,29.93,SSW,208,4.7,10.0,80,0.00,n/a,n/a,-99.99,Henriksen +1-Wire,2013-02-15 16:28:00,
2013-02-15 11:33:00,39.9,34.6,29.93,SSW,207,5.9,8.9,81,0.00,n/a,n/a,-99.99,Henriksen +1-Wire,2013-02-15 16:33:00,
2013-02-15 11:38:00,40.0,34.7,29.93,SSW,211,5.1,9.4,81,0.00,n/a,n/a,-99.99,Henriksen +1-Wire,2013-02-15 16:38:00,
2013-02-15 11:43:00,40.1,34.8,29.92,SSW,213,6.4,9.8,81,0.00,n/a,n/a,-99.99,Henriksen +1-Wire,2013-02-15 16:43:00,
2013-02-15 11:48:00,40.3,34.8,29.92,SSW,211,6.8,12.5,80,0.00,n/a,n/a,-99.99,Henriksen +1-Wire,2013-02-15 16:48:00,
2013-02-15 11:54:00,40.5,34.7,29.92,SSW,213,7.9,12.6,79,0.00,n/a,n/a,-99.99,Henriksen +1-Wire,2013-02-15 16:54:00,
2013-02-15 11:59:00,40.7,34.6,29.92,SSW,212,7.6,13.9,78,0.00,n/a,n/a,-99.99,Henriksen +1-Wire,2013-02-15 16:59:00,
2013-02-15 12:05:00,40.9,34.4,29.92,SSW,211,6.4,13.9,77,0.00,n/a,n/a,-99.99,Henriksen +1-Wire,2013-02-15 17:05:00,
2013-02-15 12:10:00,41.2,26.9,29.91,SSW,209,7.4,12.6,56,0.00,n/a,n/a,-99.99,Henriksen +1-Wire,2013-02-15 17:10:00,
2013-02-15 12:16:00,41.4,22.5,29.91,SW,214,7.3,12.6,46,0.00,n/a,n/a,-99.99,Henriksen +1-Wire,2013-02-15 17:16:00,
2013-02-15 12:21:00,41.6,26.9,29.91,SSW,212,5.5,12.5,55,0.00,n/a,n/a,-99.99,Henriksen +1-Wire,2013-02-15 17:21:00,
2013-02-15 12:26:00,41.7,29.8,29.90,SSW,210,6.8,11.9,62,0.00,n/a,n/a,-99.99,Henriksen +1-Wire,2013-02-15 17:26:00,
2013-02-15 12:31:00,41.8,30.9,29.90,SSW,208,6.1,11.8,64,0.00,n/a,n/a,-99.99,Henriksen +1-Wire,2013-02-15 17:31:00,
2013-02-15 12:36:00,41.8,32.1,29.89,SSW,207,6.1,12.5,68,0.00,n/a,n/a,-99.99,Henriksen +1-Wire,2013-02-15 17:36:00,
2013-02-15 12:42:00,41.8,32.9,29.89,SSW,206,5.6,13.3,70,0.00,n/a,n/a,-99.99,Henriksen +1-Wire,2013-02-15 17:42:00,
2013-02-15 12:47:00,41.7,33.3,29.89,SW,217,6.9,11.8,71,0.00,n/a,n/a,-99.99,Henriksen +1-Wire,2013-02-15 17:47:00,
2013-02-15 12:52:00,41.6,33.6,29.89,SW,223,6.4,13.8,73,0.00,n/a,n/a,-99.99,Henriksen +1-Wire,2013-02-15 17:52:00,
2013-02-15 12:57:00,41.6,33.9,29.89,SW,219,7.7,13.8,73,0.00,n/a,n/a,-99.99,Henriksen +1-Wire,2013-02-15 17:57:00,
2013-02-15 13:02:00,41.6,34.1,29.88,SSW,207,5.8,12.0,74,0.00,n/a,n/a,-99.99,Henriksen +1-Wire,2013-02-15 18:02:00,
2013-02-15 13:08:00,41.6,34.4,29.88,SSW,211,7.4,11.8,75,0.00,n/a,n/a,-99.99,Henriksen +1-Wire,2013-02-15 18:08:00,
2013-02-15 13:13:00,41.6,34.6,29.88,SSW,209,6.8,11.1,75,0.00,n/a,n/a,-99.99,Henriksen +1-Wire,2013-02-15 18:13:00,
2013-02-15 13:18:00,41.7,34.8,29.88,SSW,207,5.3,10.3,76,0.00,n/a,n/a,-99.99,Henriksen +1-Wire,2013-02-15 18:18:00,
2013-02-15 13:23:00,41.7,34.9,29.88,SSW,201,5.3,9.4,76,0.00,n/a,n/a,-99.99,Henriksen +1-Wire,2013-02-15 18:23:00,
2013-02-15 13:28:00,41.9,35.1,29.88,SSW,204,5.3,8.2,76,0.00,n/a,n/a,-99.99,Henriksen +1-Wire,2013-02-15 18:28:00,
2013-02-15 13:33:00,42.2,35.3,29.88,SSW,204,4.0,7.9,76,0.00,n/a,n/a,-99.99,Henriksen +1-Wire,2013-02-15 18:33:00,
2013-02-15 13:38:00,42.8,35.7,29.88,SSW,205,4.0,8.4,75,0.00,n/a,n/a,-99.99,Henriksen +1-Wire,2013-02-15 18:38:00,
2013-02-15 13:44:00,43.5,35.4,29.88,SSW,210,6.2,9.5,72,0.00,n/a,n/a,-99.99,Henriksen +1-Wire,2013-02-15 18:44:00,
2013-02-15 13:49:00,43.8,34.9,29.88,SSW,210,6.1,12.6,70,0.00,n/a,n/a,-99.99,Henriksen +1-Wire,2013-02-15 18:49:00,
2013-02-15 13:54:00,44.0,34.5,29.88,SSW,208,6.1,12.6,69,0.00,n/a,n/a,-99.99,Henriksen +1-Wire,2013-02-15 18:54:00,
2013-02-15 13:59:00,44.0,34.2,29.88,SSW,209,4.8,9.4,68,0.00,n/a,n/a,-99.99,Henriksen +1-Wire,2013-02-15 18:59:00,
2013-02-15 16:03:00,41.6,35.5,29.86,SSW,197,5.3,9.0,78,0.00,n/a,n/a,-99.99,Henriksen +1-Wire,2013-02-15 21:03:00,
2013-02-15 16:17:00,41.5,35.4,29.87,SSW,211,4.5,8.7,78,0.00,n/a,n/a,-99.99,Henriksen +1-Wire,2013-02-15 21:17:00,
2013-02-15 16:22:00,41.6,35.4,29.87,SSW,213,5.4,8.7,78,0.00,n/a,n/a,-99.99,Henriksen +1-Wire,2013-02-15 21:22:00,
2013-02-15 16:28:00,41.7,35.5,29.87,SW,214,3.8,11.8,78,0.00,n/a,n/a,-99.99,Henriksen +1-Wire,2013-02-15 21:28:00,
2013-02-15 16:33:00,41.8,35.5,29.87,SW,218,5.3,9.5,77,0.00,n/a,n/a,-99.99,Henriksen +1-Wire,2013-02-15 21:33:00,
2013-02-15 16:39:00,42.0,35.4,29.87,SW,219,5.1,9.5,77,0.00,n/a,n/a,-99.99,Henriksen +1-Wire,2013-02-15 21:39:00,
2013-02-15 16:44:00,41.9,35.3,29.87,SW,220,6.2,10.2,77,0.00,n/a,n/a,-99.99,Henriksen +1-Wire,2013-02-15 21:44:00,
2013-02-15 16:49:00,41.8,35.2,29.87,SW,219,5.7,11.8,77,0.00,n/a,n/a,-99.99,Henriksen +1-Wire,2013-02-15 21:49:00,
2013-02-15 16:54:00,41.7,35.2,29.87,SW,228,5.2,11.8,77,0.00,n/a,n/a,-99.99,Henriksen +1-Wire,2013-02-15 21:54:00,
2013-02-15 16:59:00,41.7,35.2,29.87,SW,227,5.5,10.2,77,0.00,n/a,n/a,-99.99,Henriksen +1-Wire,2013-02-15 21:59:00,
2013-02-15 17:05:00,41.7,35.2,29.87,SW,223,5.6,9.5,77,0.00,n/a,n/a,-99.99,Henriksen +1-Wire,2013-02-15 22:05:00,
2013-02-15 17:10:00,41.6,35.2,29.87,SW,223,4.8,11.7,77,0.00,n/a,n/a,-99.99,Henriksen +1-Wire,2013-02-15 22:10:00,
2013-02-15 17:16:00,41.6,35.3,29.87,SW,216,5.3,11.7,78,0.00,n/a,n/a,-99.99,Henriksen +1-Wire,2013-02-15 22:16:00,
2013-02-15 17:21:00,41.4,35.2,29.87,SW,214,4.6,10.8,78,0.00,n/a,n/a,-99.99,Henriksen +1-Wire,2013-02-15 22:21:00,
2013-02-15 17:26:00,41.3,35.2,29.87,SW,218,5.5,10.3,78,0.00,n/a,n/a,-99.99,Henriksen +1-Wire,2013-02-15 22:26:00,
2013-02-15 17:31:00,41.2,35.3,29.87,SW,232,5.6,10.3,79,0.00,n/a,n/a,-99.99,Henriksen +1-Wire,2013-02-15 22:31:00,
2013-02-15 17:37:00,41.1,35.4,29.87,SW,218,5.3,9.3,79,0.00,n/a,n/a,-99.99,Henriksen +1-Wire,2013-02-15 22:37:00,
2013-02-15 17:42:00,41.1,35.4,29.87,SW,217,4.8,11.0,80,0.00,n/a,n/a,-99.99,Henriksen +1-Wire,2013-02-15 22:42:00,
2013-02-15 17:47:00,41.1,35.5,29.87,SW,220,7.0,14.2,80,0.00,n/a,n/a,-99.99,Henriksen +1-Wire,2013-02-15 22:47:00,
2013-02-15 17:52:00,41.0,35.5,29.87,SW,219,4.7,14.2,80,0.00,n/a,n/a,-99.99,Henriksen +1-Wire,2013-02-15 22:52:00,
2013-02-15 17:57:00,40.9,35.4,29.87,SW,219,3.9,9.4,80,0.00,n/a,n/a,-99.99,Henriksen +1-Wire,2013-02-15 22:57:00,
2013-02-15 18:02:00,40.8,35.3,29.87,SW,218,5.5,8.6,80,0.00,n/a,n/a,-99.99,Henriksen +1-Wire,2013-02-15 23:02:00,
2013-02-15 20:03:00,38.8,34.5,29.89,NNW,346,1.9,4.1,84,0.00,n/a,n/a,-99.99,Henriksen +1-Wire,2013-02-16 01:03:00,
2013-02-15 20:09:00,38.6,34.4,29.90,NW,315,1.2,4.1,84,0.00,n/a,n/a,-99.99,Henriksen +1-Wire,2013-02-16 01:09:00,
2013-02-15 20:14:00,38.4,34.4,29.90,West,260,0.0,2.7,85,0.00,n/a,n/a,-99.99,Henriksen +1-Wire,2013-02-16 01:14:00,
2013-02-15 20:19:00,38.3,34.4,29.90,West,279,0.8,2.3,85,0.00,n/a,n/a,-99.99,Henriksen +1-Wire,2013-02-16 01:19:00,
2013-02-15 20:24:00,38.1,34.2,29.90,NNE,19,1.1,2.3,85,0.00,n/a,n/a,-99.99,Henriksen +1-Wire,2013-02-16 01:24:00,
2013-02-15 20:29:00,37.5,33.8,29.90,NNE,30,0.5,2.4,86,0.00,n/a,n/a,-99.99,Henriksen +1-Wire,2013-02-16 01:29:00,
2013-02-15 20:34:00,37.2,33.7,29.90,NNW,340,0.0,2.4,87,0.00,n/a,n/a,-99.99,Henriksen +1-Wire,2013-02-16 01:34:00,
2013-02-15 20:39:00,37.0,33.7,29.90,NW,311,0.0,0.0,87,0.00,n/a,n/a,-99.99,Henriksen +1-Wire,2013-02-16 01:39:00,
2013-02-15 20:44:00,36.9,32.1,29.90,WNW,284,0.7,2.4,82,0.00,n/a,n/a,-99.99,Henriksen +1-Wire,2013-02-16 01:44:00,
2013-02-15 20:49:00,36.9,25.2,29.90,WNW,284,1.5,2.6,62,0.00,n/a,n/a,-99.99,Henriksen +1-Wire,2013-02-16 01:49:00,
2013-02-15 20:54:00,36.8,24.5,29.90,NW,313,0.1,2.6,60,0.00,n/a,n/a,-99.99,Henriksen +1-Wire,2013-02-16 01:54:00,
2013-02-15 20:59:00,36.5,28.2,29.90,NW,313,0.0,1.9,71,0.00,n/a,n/a,-99.99,Henriksen +1-Wire,2013-02-16 01:59:00,
2013-02-15 21:04:00,36.2,30.0,29.90,WSW,258,0.0,0.0,77,0.00,n/a,n/a,-99.99,Henriksen +1-Wire,2013-02-16 02:04:00,
2013-02-15 21:09:00,36.1,31.5,29.90,West,266,1.4,2.4,83,0.00,n/a,n/a,-99.99,Henriksen +1-Wire,2013-02-16 02:09:00,
2013-02-15 23:14:00,33.5,28.5,29.91,NE,44,0.0,0.0,81,0.00,n/a,n/a,-99.99,Henriksen +1-Wire,2013-02-16 04:14:00,
2013-02-15 23:19:00,33.0,28.0,29.91,NE,38,0.0,0.0,81,0.00,n/a,n/a,-99.99,Henriksen +1-Wire,2013-02-16 04:19:00,
2013-02-15 23:24:00,32.6,28.1,29.91,NW,324,0.0,0.0,83,0.00,n/a,n/a,-99.99,Henriksen +1-Wire,2013-02-16 04:24:00,
2013-02-15 23:29:00,32.3,28.4,29.91,WNW,297,0.0,0.0,85,0.00,n/a,n/a,-99.99,Henriksen +1-Wire,2013-02-16 04:29:00,
2013-02-15 23:34:00,32.2,28.8,29.91,North,2,0.0,0.0,87,0.00,n/a,n/a,-99.99,Henriksen +1-Wire,2013-02-16 04:34:00,
2013-02-15 23:39:00,32.1,29.2,29.91,NNW,345,0.0,0.0,88,0.00,n/a,n/a,-99.99,Henriksen +1-Wire,2013-02-16 04:39:00,
2013-02-15 23:44:00,32.0,29.3,29.91,ENE,61,0.0,0.0,89,0.00,n/a,n/a,-99.99,Henriksen +1-Wire,2013-02-16 04:44:00,
2013-02-15 23:49:00,31.9,29.4,29.91,ENE,64,0.0,0.0,90,0.00,n/a,n/a,-99.99,Henriksen +1-Wire,2013-02-16 04:49:00,
2013-02-15 23:54:00,31.6,29.4,29.90,ENE,66,0.0,0.0,91,0.00,n/a,n/a,-99.99,Henriksen +1-Wire,2013-02-16 04:54:00,
2013-02-15 23:59:00,31.6,29.6,29.90,ENE,66,0.0,0.0,92,0.00,n/a,n/a,-99.99,Henriksen +1-Wire,2013-02-16 04:59:00,